sensor_id;sensor_type;location;lat;lon;timestamp;temperature;humidity
32614;DHT22;19031;51.400;6.770;2023-03-01T00:01:09;-1.00;99.90
32614;DHT22;19031;51.400;6.770;2023-03-01T00:03:35;-1.10;99.90
32614;DHT22;19031;51.400;6.770;2023-03-01T00:06:01;-1.10;99.90
32614;DHT22;19031;51.400;6.770;2023-03-01T00:08:27;-1.00;99.90
32614;DHT22;19031;51.400;6.770;2023-03-01T00:11:08;-1.10;99.90
32614;DHT22;19031;51.400;6.770;2023-03-01T00:13:35;-1.00;99.90
32614;DHT22;19031;51.400;6.770;2023-03-01T00:16:06;-1.10;99.90
32614;DHT22;19031;51.400;6.770;2023-03-01T00:18:32;-1.10;99.90
32614;DHT22;19031;51.400;6.770;2023-03-01T00:20:58;-1.00;99.90
32614;DHT22;19031;51.400;6.770;2023-03-01T00:23:24;-1.10;99.90
32614;DHT22;19031;51.400;6.770;2023-03-01T00:25:50;-1.10;99.90
32614;DHT22;19031;51.400;6.770;2023-03-01T00:28:16;-1.10;99.90
32614;DHT22;19031;51.400;6.770;2023-03-01T00:30:42;-1.00;99.90
32614;DHT22;19031;51.400;6.770;2023-03-01T00:33:08;-1.00;99.90
32614;DHT22;19031;51.400;6.770;2023-03-01T00:35:34;-1.10;99.90
32614;DHT22;19031;51.400;6.770;2023-03-01T00:38:01;-1.10;99.90
32614;DHT22;19031;51.400;6.770;2023-03-01T00:40:28;-1.00;99.90
32614;DHT22;19031;51.400;6.770;2023-03-01T00:42:54;-1.10;99.90
32614;DHT22;19031;51.400;6.770;2023-03-01T00:45:20;-1.10;99.90
32614;DHT22;19031;51.400;6.770;2023-03-01T00:47:46;-1.10;99.90
32614;DHT22;19031;51.400;6.770;2023-03-01T00:50:13;-1.10;99.90
32614;DHT22;19031;51.400;6.770;2023-03-01T00:52:38;-1.10;99.90
32614;DHT22;19031;51.400;6.770;2023-03-01T00:55:04;-1.20;99.90
32614;DHT22;19031;51.400;6.770;2023-03-01T00:57:31;-1.10;99.90
32614;DHT22;19031;51.400;6.770;2023-03-01T00:59:56;-1.10;99.90
32614;DHT22;19031;51.400;6.770;2023-03-01T01:02:22;-1.20;99.90
32614;DHT22;19031;51.400;6.770;2023-03-01T01:04:48;-1.20;99.90
32614;DHT22;19031;51.400;6.770;2023-03-01T01:07:14;-1.20;99.90
32614;DHT22;19031;51.400;6.770;2023-03-01T01:09:40;-1.20;99.90
32614;DHT22;19031;51.400;6.770;2023-03-01T01:12:06;-1.20;99.90
32614;DHT22;19031;51.400;6.770;2023-03-01T01:14:32;-1.30;99.90
32614;DHT22;19031;51.400;6.770;2023-03-01T01:16:58;-1.40;99.90
32614;DHT22;19031;51.400;6.770;2023-03-01T01:19:24;-1.30;99.90
32614;DHT22;19031;51.400;6.770;2023-03-01T01:21:50;-1.40;99.90
32614;DHT22;19031;51.400;6.770;2023-03-01T01:24:16;-1.40;99.90
32614;DHT22;19031;51.400;6.770;2023-03-01T01:26:42;-1.40;99.90
32614;DHT22;19031;51.400;6.770;2023-03-01T01:29:09;-1.40;99.90
32614;DHT22;19031;51.400;6.770;2023-03-01T01:31:36;-1.50;99.90
32614;DHT22;19031;51.400;6.770;2023-03-01T01:34:04;-1.50;99.90
32614;DHT22;19031;51.400;6.770;2023-03-01T01:36:30;-1.60;99.90
32614;DHT22;19031;51.400;6.770;2023-03-01T01:38:56;-1.50;99.90
32614;DHT22;19031;51.400;6.770;2023-03-01T01:41:23;-1.60;99.90
32614;DHT22;19031;51.400;6.770;2023-03-01T01:44:19;-1.60;99.90
32614;DHT22;19031;51.400;6.770;2023-03-01T01:49:29;-1.60;99.90
32614;DHT22;19031;51.400;6.770;2023-03-01T01:52:19;-1.70;99.90
32614;DHT22;19031;51.400;6.770;2023-03-01T01:55:17;-1.70;99.90
32614;DHT22;19031;51.400;6.770;2023-03-01T01:57:50;-1.70;99.90
32614;DHT22;19031;51.400;6.770;2023-03-01T02:00:20;-1.80;99.90
32614;DHT22;19031;51.400;6.770;2023-03-01T02:02:48;-1.80;99.90
32614;DHT22;19031;51.400;6.770;2023-03-01T02:08:04;-1.80;99.90
32614;DHT22;19031;51.400;6.770;2023-03-01T02:10:32;-1.80;99.90
32614;DHT22;19031;51.400;6.770;2023-03-01T02:12:58;-1.80;99.90
32614;DHT22;19031;51.400;6.770;2023-03-01T02:15:25;-1.80;99.90
32614;DHT22;19031;51.400;6.770;2023-03-01T02:17:52;-1.80;99.90
32614;DHT22;19031;51.400;6.770;2023-03-01T02:23:10;-1.80;99.90
32614;DHT22;19031;51.400;6.770;2023-03-01T02:25:47;-1.70;99.90
32614;DHT22;19031;51.400;6.770;2023-03-01T02:30:44;-1.70;99.90
32614;DHT22;19031;51.400;6.770;2023-03-01T02:33:31;-1.70;99.90
32614;DHT22;19031;51.400;6.770;2023-03-01T02:35:59;-1.70;99.90
32614;DHT22;19031;51.400;6.770;2023-03-01T02:38:26;-1.70;99.90
32614;DHT22;19031;51.400;6.770;2023-03-01T02:40:52;-1.60;99.90
32614;DHT22;19031;51.400;6.770;2023-03-01T02:43:21;-1.80;99.90
32614;DHT22;19031;51.400;6.770;2023-03-01T02:45:49;-1.80;99.90
32614;DHT22;19031;51.400;6.770;2023-03-01T02:48:16;-1.70;99.90
32614;DHT22;19031;51.400;6.770;2023-03-01T02:53:44;-2.00;99.90
32614;DHT22;19031;51.400;6.770;2023-03-01T02:56:07;-2.00;99.90
32614;DHT22;19031;51.400;6.770;2023-03-01T02:58:41;-2.10;99.90
32614;DHT22;19031;51.400;6.770;2023-03-01T03:01:11;-2.10;99.90
32614;DHT22;19031;51.400;6.770;2023-03-01T03:03:36;-2.20;99.90
32614;DHT22;19031;51.400;6.770;2023-03-01T03:06:02;-2.20;99.90
32614;DHT22;19031;51.400;6.770;2023-03-01T03:08:27;-2.10;99.90
32614;DHT22;19031;51.400;6.770;2023-03-01T03:10:53;-2.20;99.90
32614;DHT22;19031;51.400;6.770;2023-03-01T03:13:18;-2.20;99.90
32614;DHT22;19031;51.400;6.770;2023-03-01T03:15:44;-2.10;99.90
32614;DHT22;19031;51.400;6.770;2023-03-01T03:18:16;-2.10;99.90
32614;DHT22;19031;51.400;6.770;2023-03-01T03:20:43;-2.10;99.90
32614;DHT22;19031;51.400;6.770;2023-03-01T03:23:09;-2.20;99.90
32614;DHT22;19031;51.400;6.770;2023-03-01T03:25:35;-2.20;99.90
32614;DHT22;19031;51.400;6.770;2023-03-01T03:28:03;-2.20;99.90
32614;DHT22;19031;51.400;6.770;2023-03-01T03:30:36;-2.10;99.90
32614;DHT22;19031;51.400;6.770;2023-03-01T03:33:04;-2.20;99.90
32614;DHT22;19031;51.400;6.770;2023-03-01T03:35:39;-2.10;99.90
32614;DHT22;19031;51.400;6.770;2023-03-01T03:38:07;-2.10;99.90
32614;DHT22;19031;51.400;6.770;2023-03-01T03:40:42;-2.20;99.90
32614;DHT22;19031;51.400;6.770;2023-03-01T03:43:11;-2.20;99.90
32614;DHT22;19031;51.400;6.770;2023-03-01T03:45:37;-2.20;99.90
32614;DHT22;19031;51.400;6.770;2023-03-01T03:48:05;-2.30;99.90
32614;DHT22;19031;51.400;6.770;2023-03-01T03:50:32;-2.30;99.90
32614;DHT22;19031;51.400;6.770;2023-03-01T03:53:01;-2.30;99.90
32614;DHT22;19031;51.400;6.770;2023-03-01T03:55:27;-2.30;99.90
32614;DHT22;19031;51.400;6.770;2023-03-01T03:57:57;-2.20;99.90
32614;DHT22;19031;51.400;6.770;2023-03-01T04:00:23;-2.20;99.90
32614;DHT22;19031;51.400;6.770;2023-03-01T04:02:50;-2.20;99.90
32614;DHT22;19031;51.400;6.770;2023-03-01T04:05:17;-2.20;99.90
32614;DHT22;19031;51.400;6.770;2023-03-01T04:07:44;-2.20;99.90
32614;DHT22;19031;51.400;6.770;2023-03-01T04:10:15;-2.20;99.90
32614;DHT22;19031;51.400;6.770;2023-03-01T04:12:40;-2.20;99.90
32614;DHT22;19031;51.400;6.770;2023-03-01T04:15:10;-2.20;99.90
32614;DHT22;19031;51.400;6.770;2023-03-01T04:17:47;-2.20;99.90
32614;DHT22;19031;51.400;6.770;2023-03-01T04:20:18;-2.20;99.90
32614;DHT22;19031;51.400;6.770;2023-03-01T04:23:00;-2.20;99.90
32614;DHT22;19031;51.400;6.770;2023-03-01T04:25:39;-2.20;99.90
32614;DHT22;19031;51.400;6.770;2023-03-01T04:28:05;-2.10;99.90
32614;DHT22;19031;51.400;6.770;2023-03-01T04:30:31;-2.20;99.90
32614;DHT22;19031;51.400;6.770;2023-03-01T04:33:02;-2.20;99.90
32614;DHT22;19031;51.400;6.770;2023-03-01T04:35:27;-2.20;99.90
32614;DHT22;19031;51.400;6.770;2023-03-01T04:37:53;-2.10;99.90
32614;DHT22;19031;51.400;6.770;2023-03-01T04:40:18;-2.20;99.90
32614;DHT22;19031;51.400;6.770;2023-03-01T04:42:44;-2.20;99.90
32614;DHT22;19031;51.400;6.770;2023-03-01T04:45:10;-2.10;99.90
32614;DHT22;19031;51.400;6.770;2023-03-01T04:47:43;-2.10;99.90
32614;DHT22;19031;51.400;6.770;2023-03-01T04:50:10;-2.10;99.90
32614;DHT22;19031;51.400;6.770;2023-03-01T04:52:40;-2.10;99.90
32614;DHT22;19031;51.400;6.770;2023-03-01T04:55:06;-2.10;99.90
32614;DHT22;19031;51.400;6.770;2023-03-01T04:57:32;-2.10;99.90
32614;DHT22;19031;51.400;6.770;2023-03-01T04:59:57;-2.20;99.90
32614;DHT22;19031;51.400;6.770;2023-03-01T05:02:23;-2.10;99.90
32614;DHT22;19031;51.400;6.770;2023-03-01T05:04:49;-2.10;99.90
32614;DHT22;19031;51.400;6.770;2023-03-01T05:07:14;-2.10;99.90
32614;DHT22;19031;51.400;6.770;2023-03-01T05:09:47;-2.10;99.90
32614;DHT22;19031;51.400;6.770;2023-03-01T05:12:13;-2.10;99.90
32614;DHT22;19031;51.400;6.770;2023-03-01T05:14:39;-2.10;99.90
32614;DHT22;19031;51.400;6.770;2023-03-01T05:17:05;-2.10;99.90
32614;DHT22;19031;51.400;6.770;2023-03-01T05:19:31;-2.20;99.90
32614;DHT22;19031;51.400;6.770;2023-03-01T05:21:58;-2.20;99.90
32614;DHT22;19031;51.400;6.770;2023-03-01T05:24:28;-2.30;99.90
32614;DHT22;19031;51.400;6.770;2023-03-01T05:26:53;-2.30;99.90
32614;DHT22;19031;51.400;6.770;2023-03-01T05:29:21;-2.20;99.90
32614;DHT22;19031;51.400;6.770;2023-03-01T05:31:53;-2.20;99.90
32614;DHT22;19031;51.400;6.770;2023-03-01T05:34:30;-2.20;99.90
32614;DHT22;19031;51.400;6.770;2023-03-01T05:36:56;-2.20;99.90
32614;DHT22;19031;51.400;6.770;2023-03-01T05:39:29;-2.30;99.90
32614;DHT22;19031;51.400;6.770;2023-03-01T05:41:56;-2.30;99.90
32614;DHT22;19031;51.400;6.770;2023-03-01T05:44:23;-2.30;99.90
32614;DHT22;19031;51.400;6.770;2023-03-01T05:46:49;-2.30;99.90
32614;DHT22;19031;51.400;6.770;2023-03-01T05:49:15;-2.30;99.90
32614;DHT22;19031;51.400;6.770;2023-03-01T05:51:42;-2.20;99.90
32614;DHT22;19031;51.400;6.770;2023-03-01T05:54:08;-2.20;99.90
32614;DHT22;19031;51.400;6.770;2023-03-01T05:56:35;-2.20;99.90
32614;DHT22;19031;51.400;6.770;2023-03-01T05:59:01;-2.20;99.90
32614;DHT22;19031;51.400;6.770;2023-03-01T06:01:27;-2.10;99.90
32614;DHT22;19031;51.400;6.770;2023-03-01T06:03:53;-2.20;99.90
32614;DHT22;19031;51.400;6.770;2023-03-01T06:06:18;-2.20;99.90
32614;DHT22;19031;51.400;6.770;2023-03-01T06:08:44;-2.20;99.90
32614;DHT22;19031;51.400;6.770;2023-03-01T06:11:10;-2.20;99.90
32614;DHT22;19031;51.400;6.770;2023-03-01T06:13:35;-2.20;99.90
32614;DHT22;19031;51.400;6.770;2023-03-01T06:16:04;-2.20;99.90
32614;DHT22;19031;51.400;6.770;2023-03-01T06:18:31;-2.20;99.90
32614;DHT22;19031;51.400;6.770;2023-03-01T06:20:56;-2.30;99.90
32614;DHT22;19031;51.400;6.770;2023-03-01T06:23:22;-2.20;99.90
32614;DHT22;19031;51.400;6.770;2023-03-01T06:25:48;-2.30;99.90
32614;DHT22;19031;51.400;6.770;2023-03-01T06:28:14;-2.30;99.90
32614;DHT22;19031;51.400;6.770;2023-03-01T06:30:39;-2.30;99.90
32614;DHT22;19031;51.400;6.770;2023-03-01T06:33:05;-2.30;99.90
32614;DHT22;19031;51.400;6.770;2023-03-01T06:35:31;-2.20;99.90
32614;DHT22;19031;51.400;6.770;2023-03-01T06:37:58;-2.10;99.90
32614;DHT22;19031;51.400;6.770;2023-03-01T06:40:24;-2.10;99.90
32614;DHT22;19031;51.400;6.770;2023-03-01T06:42:51;-2.10;99.90
32614;DHT22;19031;51.400;6.770;2023-03-01T06:45:18;-2.00;99.90
32614;DHT22;19031;51.400;6.770;2023-03-01T06:47:44;-1.90;99.90
32614;DHT22;19031;51.400;6.770;2023-03-01T06:50:10;-1.90;99.90
32614;DHT22;19031;51.400;6.770;2023-03-01T06:52:36;-1.90;99.90
32614;DHT22;19031;51.400;6.770;2023-03-01T06:55:02;-1.90;99.90
32614;DHT22;19031;51.400;6.770;2023-03-01T06:57:28;-2.00;99.90
32614;DHT22;19031;51.400;6.770;2023-03-01T06:59:53;-2.00;99.90
32614;DHT22;19031;51.400;6.770;2023-03-01T07:02:19;-2.00;99.90
32614;DHT22;19031;51.400;6.770;2023-03-01T07:04:44;-2.00;99.90
32614;DHT22;19031;51.400;6.770;2023-03-01T07:07:10;-2.00;99.90
32614;DHT22;19031;51.400;6.770;2023-03-01T07:09:36;-2.10;99.90
32614;DHT22;19031;51.400;6.770;2023-03-01T07:12:02;-2.00;99.90
32614;DHT22;19031;51.400;6.770;2023-03-01T07:14:27;-1.90;99.90
32614;DHT22;19031;51.400;6.770;2023-03-01T07:16:53;-1.90;99.90
32614;DHT22;19031;51.400;6.770;2023-03-01T07:19:20;-1.80;99.90
32614;DHT22;19031;51.400;6.770;2023-03-01T07:21:45;-1.90;99.90
32614;DHT22;19031;51.400;6.770;2023-03-01T07:24:11;-1.80;99.90
32614;DHT22;19031;51.400;6.770;2023-03-01T07:26:37;-1.70;99.90
32614;DHT22;19031;51.400;6.770;2023-03-01T07:29:05;-1.60;99.90
32614;DHT22;19031;51.400;6.770;2023-03-01T07:31:31;-1.60;99.90
32614;DHT22;19031;51.400;6.770;2023-03-01T07:33:56;-1.50;99.90
32614;DHT22;19031;51.400;6.770;2023-03-01T07:36:23;-1.20;99.90
32614;DHT22;19031;51.400;6.770;2023-03-01T07:38:49;-0.60;99.90
32614;DHT22;19031;51.400;6.770;2023-03-01T07:41:15;0.00;99.90
32614;DHT22;19031;51.400;6.770;2023-03-01T07:43:40;0.70;95.50
32614;DHT22;19031;51.400;6.770;2023-03-01T07:46:06;1.40;88.80
32614;DHT22;19031;51.400;6.770;2023-03-01T07:48:32;1.90;67.90
32614;DHT22;19031;51.400;6.770;2023-03-01T07:51:02;1.80;55.50
32614;DHT22;19031;51.400;6.770;2023-03-01T07:53:29;1.30;64.90
32614;DHT22;19031;51.400;6.770;2023-03-01T07:56:10;1.00;70.70
32614;DHT22;19031;51.400;6.770;2023-03-01T07:58:37;0.70;77.60
32614;DHT22;19031;51.400;6.770;2023-03-01T08:01:05;0.60;83.40
32614;DHT22;19031;51.400;6.770;2023-03-01T08:03:31;0.40;86.80
32614;DHT22;19031;51.400;6.770;2023-03-01T08:05:59;0.30;88.90
32614;DHT22;19031;51.400;6.770;2023-03-01T08:08:25;0.20;90.80
32614;DHT22;19031;51.400;6.770;2023-03-01T08:10:51;0.20;91.00
32614;DHT22;19031;51.400;6.770;2023-03-01T08:13:17;0.10;92.10
32614;DHT22;19031;51.400;6.770;2023-03-01T08:15:48;0.10;91.00
32614;DHT22;19031;51.400;6.770;2023-03-01T08:18:14;0.10;92.40
32614;DHT22;19031;51.400;6.770;2023-03-01T08:20:40;0.50;93.30
32614;DHT22;19031;51.400;6.770;2023-03-01T08:23:05;1.50;92.50
32614;DHT22;19031;51.400;6.770;2023-03-01T08:25:31;2.80;59.10
32614;DHT22;19031;51.400;6.770;2023-03-01T08:27:56;3.50;28.10
32614;DHT22;19031;51.400;6.770;2023-03-01T08:30:22;4.30;16.40
32614;DHT22;19031;51.400;6.770;2023-03-01T08:32:49;4.90;1.00
32614;DHT22;19031;51.400;6.770;2023-03-01T08:35:16;5.50;1.00
32614;DHT22;19031;51.400;6.770;2023-03-01T08:37:41;6.00;1.00
32614;DHT22;19031;51.400;6.770;2023-03-01T08:40:07;6.30;1.00
32614;DHT22;19031;51.400;6.770;2023-03-01T08:42:35;6.60;1.00
32614;DHT22;19031;51.400;6.770;2023-03-01T08:45:01;7.50;99.90
32614;DHT22;19031;51.400;6.770;2023-03-01T08:47:27;8.30;99.90
32614;DHT22;19031;51.400;6.770;2023-03-01T08:49:52;8.40;99.90
32614;DHT22;19031;51.400;6.770;2023-03-01T08:52:19;8.60;99.90
32614;DHT22;19031;51.400;6.770;2023-03-01T08:54:46;9.10;99.90
32614;DHT22;19031;51.400;6.770;2023-03-01T08:57:12;9.40;89.30
32614;DHT22;19031;51.400;6.770;2023-03-01T08:59:38;9.60;48.60
32614;DHT22;19031;51.400;6.770;2023-03-01T09:02:04;10.10;1.00
32614;DHT22;19031;51.400;6.770;2023-03-01T09:04:30;10.40;99.90
32614;DHT22;19031;51.400;6.770;2023-03-01T09:06:56;9.80;1.00
32614;DHT22;19031;51.400;6.770;2023-03-01T09:09:21;10.10;99.90
32614;DHT22;19031;51.400;6.770;2023-03-01T09:11:47;9.70;99.90
32614;DHT22;19031;51.400;6.770;2023-03-01T09:14:15;9.90;1.00
32614;DHT22;19031;51.400;6.770;2023-03-01T09:16:41;10.30;99.90
32614;DHT22;19031;51.400;6.770;2023-03-01T09:19:06;9.40;85.40
32614;DHT22;19031;51.400;6.770;2023-03-01T09:21:32;9.40;66.70
32614;DHT22;19031;51.400;6.770;2023-03-01T09:23:58;9.80;99.90
32614;DHT22;19031;51.400;6.770;2023-03-01T09:26:24;9.30;1.00
32614;DHT22;19031;51.400;6.770;2023-03-01T09:28:53;9.70;99.90
32614;DHT22;19031;51.400;6.770;2023-03-01T09:31:20;9.00;1.00
32614;DHT22;19031;51.400;6.770;2023-03-01T09:33:47;8.80;42.90
32614;DHT22;19031;51.400;6.770;2023-03-01T09:36:18;8.80;99.90
32614;DHT22;19031;51.400;6.770;2023-03-01T09:38:46;8.80;64.20
32614;DHT22;19031;51.400;6.770;2023-03-01T09:46:47;6.50;99.90
32614;DHT22;19031;51.400;6.770;2023-03-01T09:49:25;6.20;99.90
32614;DHT22;19031;51.400;6.770;2023-03-01T09:52:19;6.20;1.00
32614;DHT22;19031;51.400;6.770;2023-03-01T09:54:55;7.40;99.90
32614;DHT22;19031;51.400;6.770;2023-03-01T09:57:33;7.70;99.90
32614;DHT22;19031;51.400;6.770;2023-03-01T10:08:53;10.10;99.90
32614;DHT22;19031;51.400;6.770;2023-03-01T10:11:38;10.70;99.90
32614;DHT22;19031;51.400;6.770;2023-03-01T10:14:59;11.40;99.90
32614;DHT22;19031;51.400;6.770;2023-03-01T10:19:51;11.20;99.90
32614;DHT22;19031;51.400;6.770;2023-03-01T10:22:22;11.40;99.90
32614;DHT22;19031;51.400;6.770;2023-03-01T10:24:51;12.00;1.00
32614;DHT22;19031;51.400;6.770;2023-03-01T10:27:34;12.80;99.90
32614;DHT22;19031;51.400;6.770;2023-03-01T10:32:36;12.60;99.90
32614;DHT22;19031;51.400;6.770;2023-03-01T10:38:17;11.80;99.90
32614;DHT22;19031;51.400;6.770;2023-03-01T10:40:57;11.80;99.90
32614;DHT22;19031;51.400;6.770;2023-03-01T10:43:26;11.80;99.90
32614;DHT22;19031;51.400;6.770;2023-03-01T10:45:52;11.90;1.00
32614;DHT22;19031;51.400;6.770;2023-03-01T10:48:23;12.30;99.90
32614;DHT22;19031;51.400;6.770;2023-03-01T10:53:29;12.10;99.90
32614;DHT22;19031;51.400;6.770;2023-03-01T10:56:19;11.60;99.90
32614;DHT22;19031;51.400;6.770;2023-03-01T10:59:03;12.40;99.90
32614;DHT22;19031;51.400;6.770;2023-03-01T11:01:33;12.80;43.10
32614;DHT22;19031;51.400;6.770;2023-03-01T11:04:11;13.00;8.40
32614;DHT22;19031;51.400;6.770;2023-03-01T11:06:41;12.50;1.00
32614;DHT22;19031;51.400;6.770;2023-03-01T11:09:17;12.50;99.90
32614;DHT22;19031;51.400;6.770;2023-03-01T11:11:43;12.50;99.90
32614;DHT22;19031;51.400;6.770;2023-03-01T11:14:17;13.00;99.90
32614;DHT22;19031;51.400;6.770;2023-03-01T11:16:45;13.10;99.90
32614;DHT22;19031;51.400;6.770;2023-03-01T11:21:42;14.10;99.90
32614;DHT22;19031;51.400;6.770;2023-03-01T11:24:11;13.70;99.90
32614;DHT22;19031;51.400;6.770;2023-03-01T11:26:41;13.60;99.00
32614;DHT22;19031;51.400;6.770;2023-03-01T11:29:16;13.20;99.90
32614;DHT22;19031;51.400;6.770;2023-03-01T11:31:44;13.90;99.90
32614;DHT22;19031;51.400;6.770;2023-03-01T11:34:15;14.20;99.90
32614;DHT22;19031;51.400;6.770;2023-03-01T11:36:42;14.10;97.50
32614;DHT22;19031;51.400;6.770;2023-03-01T11:39:47;14.30;53.70
32614;DHT22;19031;51.400;6.770;2023-03-01T11:42:24;14.50;1.60
32614;DHT22;19031;51.400;6.770;2023-03-01T11:44:55;14.00;1.00
32614;DHT22;19031;51.400;6.770;2023-03-01T11:55:52;15.00;1.00
32614;DHT22;19031;51.400;6.770;2023-03-01T12:01:32;13.80;1.00
32614;DHT22;19031;51.400;6.770;2023-03-01T12:14:48;14.10;19.80
32614;DHT22;19031;51.400;6.770;2023-03-01T12:18:30;15.10;24.40
32614;DHT22;19031;51.400;6.770;2023-03-01T12:29:07;12.80;99.90
32614;DHT22;19031;51.400;6.770;2023-03-01T12:40:03;14.10;1.90
32614;DHT22;19031;51.400;6.770;2023-03-01T12:45:39;14.50;1.00
32614;DHT22;19031;51.400;6.770;2023-03-01T12:48:34;14.50;99.90
32614;DHT22;19031;51.400;6.770;2023-03-01T12:51:10;14.60;99.90
32614;DHT22;19031;51.400;6.770;2023-03-01T12:53:50;15.30;99.90
32614;DHT22;19031;51.400;6.770;2023-03-01T12:56:29;15.60;99.90
32614;DHT22;19031;51.400;6.770;2023-03-01T12:59:38;15.70;99.90
32614;DHT22;19031;51.400;6.770;2023-03-01T13:02:25;15.30;99.90
32614;DHT22;19031;51.400;6.770;2023-03-01T13:08:27;16.40;99.90
32614;DHT22;19031;51.400;6.770;2023-03-01T13:11:02;14.90;99.90
32614;DHT22;19031;51.400;6.770;2023-03-01T13:13:29;15.30;99.90
32614;DHT22;19031;51.400;6.770;2023-03-01T13:15:55;14.30;99.90
32614;DHT22;19031;51.400;6.770;2023-03-01T13:21:01;14.20;99.90
32614;DHT22;19031;51.400;6.770;2023-03-01T13:23:28;13.90;99.90
32614;DHT22;19031;51.400;6.770;2023-03-01T13:33:54;13.80;1.00
32614;DHT22;19031;51.400;6.770;2023-03-01T13:38:58;13.50;1.00
32614;DHT22;19031;51.400;6.770;2023-03-01T13:49:47;10.00;99.90
32614;DHT22;19031;51.400;6.770;2023-03-01T13:54:49;11.10;99.90
32614;DHT22;19031;51.400;6.770;2023-03-01T13:57:22;11.30;29.30
32614;DHT22;19031;51.400;6.770;2023-03-01T13:59:50;12.40;99.90
32614;DHT22;19031;51.400;6.770;2023-03-01T14:02:15;12.60;99.90
32614;DHT22;19031;51.400;6.770;2023-03-01T14:04:41;13.60;47.00
32614;DHT22;19031;51.400;6.770;2023-03-01T14:09:43;12.90;99.90
32614;DHT22;19031;51.400;6.770;2023-03-01T14:14:59;12.80;99.90
32614;DHT22;19031;51.400;6.770;2023-03-01T14:20:30;11.90;99.90
32614;DHT22;19031;51.400;6.770;2023-03-01T14:22:59;10.80;99.90
32614;DHT22;19031;51.400;6.770;2023-03-01T14:25:33;10.90;32.50
32614;DHT22;19031;51.400;6.770;2023-03-01T14:28:03;11.50;1.00
32614;DHT22;19031;51.400;6.770;2023-03-01T14:30:38;11.60;30.60
32614;DHT22;19031;51.400;6.770;2023-03-01T14:33:24;11.10;99.90
32614;DHT22;19031;51.400;6.770;2023-03-01T14:35:56;11.30;33.50
32614;DHT22;19031;51.400;6.770;2023-03-01T14:41:02;12.30;99.90
32614;DHT22;19031;51.400;6.770;2023-03-01T14:43:29;13.00;99.90
32614;DHT22;19031;51.400;6.770;2023-03-01T14:45:56;13.10;1.00
32614;DHT22;19031;51.400;6.770;2023-03-01T14:48:22;12.90;1.00
32614;DHT22;19031;51.400;6.770;2023-03-01T14:50:48;12.70;1.00
32614;DHT22;19031;51.400;6.770;2023-03-01T14:53:21;12.70;1.00
32614;DHT22;19031;51.400;6.770;2023-03-01T14:55:52;12.50;16.80
32614;DHT22;19031;51.400;6.770;2023-03-01T14:58:22;11.50;97.40
32614;DHT22;19031;51.400;6.770;2023-03-01T15:00:53;10.10;99.90
32614;DHT22;19031;51.400;6.770;2023-03-01T15:03:42;9.50;99.90
32614;DHT22;19031;51.400;6.770;2023-03-01T15:06:10;8.90;99.90
32614;DHT22;19031;51.400;6.770;2023-03-01T15:08:42;8.40;99.90
32614;DHT22;19031;51.400;6.770;2023-03-01T15:11:32;8.20;1.00
32614;DHT22;19031;51.400;6.770;2023-03-01T15:13:58;7.80;99.90
32614;DHT22;19031;51.400;6.770;2023-03-01T15:16:25;7.50;99.90
32614;DHT22;19031;51.400;6.770;2023-03-01T15:21:34;7.30;99.90
32614;DHT22;19031;51.400;6.770;2023-03-01T15:24:08;7.30;99.90
32614;DHT22;19031;51.400;6.770;2023-03-01T15:29:22;7.00;99.90
32614;DHT22;19031;51.400;6.770;2023-03-01T15:32:00;6.90;99.90
32614;DHT22;19031;51.400;6.770;2023-03-01T15:34:29;6.80;99.90
32614;DHT22;19031;51.400;6.770;2023-03-01T15:36:57;6.70;99.90
32614;DHT22;19031;51.400;6.770;2023-03-01T15:41:52;6.40;99.90
32614;DHT22;19031;51.400;6.770;2023-03-01T15:46:51;6.50;99.90
32614;DHT22;19031;51.400;6.770;2023-03-01T15:49:39;6.40;99.90
32614;DHT22;19031;51.400;6.770;2023-03-01T15:52:40;6.40;99.90
32614;DHT22;19031;51.400;6.770;2023-03-01T15:55:02;6.30;99.90
32614;DHT22;19031;51.400;6.770;2023-03-01T15:57:29;6.20;99.90
32614;DHT22;19031;51.400;6.770;2023-03-01T15:59:55;6.10;99.90
32614;DHT22;19031;51.400;6.770;2023-03-01T16:02:22;6.10;99.90
32614;DHT22;19031;51.400;6.770;2023-03-01T16:04:48;6.00;99.90
32614;DHT22;19031;51.400;6.770;2023-03-01T16:07:14;6.00;99.90
32614;DHT22;19031;51.400;6.770;2023-03-01T16:09:40;6.00;99.90
32614;DHT22;19031;51.400;6.770;2023-03-01T16:12:08;6.00;99.90
32614;DHT22;19031;51.400;6.770;2023-03-01T16:14:36;5.90;99.90
32614;DHT22;19031;51.400;6.770;2023-03-01T16:17:02;5.90;99.90
32614;DHT22;19031;51.400;6.770;2023-03-01T16:19:28;5.90;99.90
32614;DHT22;19031;51.400;6.770;2023-03-01T16:21:53;5.90;99.90
32614;DHT22;19031;51.400;6.770;2023-03-01T16:24:19;5.90;99.90
32614;DHT22;19031;51.400;6.770;2023-03-01T16:26:44;5.80;99.90
32614;DHT22;19031;51.400;6.770;2023-03-01T16:29:10;5.80;1.00
32614;DHT22;19031;51.400;6.770;2023-03-01T16:31:35;5.70;99.90
32614;DHT22;19031;51.400;6.770;2023-03-01T16:34:01;5.60;1.00
32614;DHT22;19031;51.400;6.770;2023-03-01T16:36:27;5.60;1.00
32614;DHT22;19031;51.400;6.770;2023-03-01T16:38:58;5.50;99.90
32614;DHT22;19031;51.400;6.770;2023-03-01T16:41:26;5.50;99.90
32614;DHT22;19031;51.400;6.770;2023-03-01T16:43:52;5.40;1.00
32614;DHT22;19031;51.400;6.770;2023-03-01T16:46:21;5.40;1.00
32614;DHT22;19031;51.400;6.770;2023-03-01T16:48:48;5.30;1.00
32614;DHT22;19031;51.400;6.770;2023-03-01T16:51:14;5.20;1.00
32614;DHT22;19031;51.400;6.770;2023-03-01T16:53:40;5.20;1.00
32614;DHT22;19031;51.400;6.770;2023-03-01T16:56:08;5.20;1.00
32614;DHT22;19031;51.400;6.770;2023-03-01T16:58:35;5.10;1.00
32614;DHT22;19031;51.400;6.770;2023-03-01T17:03:31;5.00;1.00
32614;DHT22;19031;51.400;6.770;2023-03-01T17:05:56;4.90;1.00
32614;DHT22;19031;51.400;6.770;2023-03-01T17:08:22;4.90;1.00
32614;DHT22;19031;51.400;6.770;2023-03-01T17:10:48;4.80;1.00
32614;DHT22;19031;51.400;6.770;2023-03-01T17:13:13;4.80;1.00
32614;DHT22;19031;51.400;6.770;2023-03-01T17:15:40;4.80;1.00
32614;DHT22;19031;51.400;6.770;2023-03-01T17:18:07;4.70;1.00
32614;DHT22;19031;51.400;6.770;2023-03-01T17:20:33;4.60;1.00
32614;DHT22;19031;51.400;6.770;2023-03-01T17:22:59;4.60;1.00
32614;DHT22;19031;51.400;6.770;2023-03-01T17:25:25;4.60;1.00
32614;DHT22;19031;51.400;6.770;2023-03-01T17:27:50;4.60;1.00
32614;DHT22;19031;51.400;6.770;2023-03-01T17:30:17;4.40;1.00
32614;DHT22;19031;51.400;6.770;2023-03-01T17:32:42;4.30;1.00
32614;DHT22;19031;51.400;6.770;2023-03-01T17:35:08;4.30;1.00
32614;DHT22;19031;51.400;6.770;2023-03-01T17:37:36;4.20;1.00
32614;DHT22;19031;51.400;6.770;2023-03-01T17:40:04;4.20;1.00
32614;DHT22;19031;51.400;6.770;2023-03-01T17:42:30;4.10;1.00
32614;DHT22;19031;51.400;6.770;2023-03-01T17:44:56;4.10;1.00
32614;DHT22;19031;51.400;6.770;2023-03-01T17:47:22;4.00;1.00
32614;DHT22;19031;51.400;6.770;2023-03-01T17:49:48;3.90;1.00
32614;DHT22;19031;51.400;6.770;2023-03-01T17:52:14;3.90;1.00
32614;DHT22;19031;51.400;6.770;2023-03-01T17:54:39;3.90;1.00
32614;DHT22;19031;51.400;6.770;2023-03-01T17:57:05;3.90;1.00
32614;DHT22;19031;51.400;6.770;2023-03-01T17:59:31;3.80;1.00
32614;DHT22;19031;51.400;6.770;2023-03-01T18:01:58;3.90;1.00
32614;DHT22;19031;51.400;6.770;2023-03-01T18:04:26;3.80;1.00